Time;durP1;ratioP1;P1;durP2;ratioP2;P2;SDS_P1;SDS_P2;PMS_P1;PMS_P2;Temp;Humidity;BMP_temperature;BMP_pressure;BME280_temperature;BME280_humidity;BME280_pressure;Samples;Min_cycle;Max_cycle;Signal;HPM_P1;HPM_P2
2021/07/04 00:00:20;;;;;;;0.20;0.20;;;19.60;73.10;;;;;;5077487;28;20483;-77
2021/07/04 00:02:46;;;;;;;0.25;0.20;;;19.60;72.80;;;;;;5096313;28;20643;-77
2021/07/04 00:05:15;;;;;;;0.40;0.20;;;19.80;72.20;;;;;;5108611;28;20212;-77
2021/07/04 00:07:42;;;;;;;0.40;0.20;;;19.70;73.00;;;;;;5107125;28;20034;-77
2021/07/04 00:10:10;;;;;;;0.75;0.30;;;19.60;73.10;;;;;;5105086;28;20039;-77
2021/07/04 00:12:36;;;;;;;0.40;0.20;;;19.60;73.40;;;;;;5120907;27;20016;-77
2021/07/04 00:15:10;;;;;;;1.02;0.28;;;19.60;73.40;;;;;;5109100;28;20493;-75
2021/07/04 00:17:36;;;;;;;0.80;0.30;;;19.60;73.60;;;;;;5109017;28;20510;-76
2021/07/04 00:20:07;;;;;;;0.77;0.38;;;19.40;74.70;;;;;;5106894;28;20049;-77
2021/07/04 00:22:33;;;;;;;0.73;0.32;;;19.30;75.30;;;;;;5108380;28;20103;-77
2021/07/04 00:24:58;;;;;;;1.02;0.30;;;19.30;75.60;;;;;;5106830;28;20050;-77
2021/07/04 00:27:24;;;;;;;0.38;0.20;;;19.30;75.80;;;;;;5107277;28;20044;-77
2021/07/04 00:29:50;;;;;;;0.52;0.30;;;19.20;76.60;;;;;;5107686;28;20518;-77
2021/07/04 00:32:15;;;;;;;0.45;0.20;;;19.10;77.10;;;;;;5102115;28;20705;-77
2021/07/04 00:34:41;;;;;;;0.45;0.20;;;19.20;77.20;;;;;;5097212;28;20034;-77
2021/07/04 00:37:07;;;;;;;0.40;0.30;;;19.00;77.30;;;;;;5098600;28;20161;-77
2021/07/04 00:39:32;;;;;;;0.65;0.40;;;19.10;77.40;;;;;;5088880;28;20037;-77
2021/07/04 00:41:58;;;;;;;0.98;0.40;;;19.10;77.70;;;;;;5078285;28;20028;-77
2021/07/04 00:44:23;;;;;;;0.60;0.40;;;19.00;78.00;;;;;;5078013;28;20056;-77
2021/07/04 00:46:49;;;;;;;0.57;0.20;;;19.00;77.90;;;;;;5080114;28;20033;-77
2021/07/04 00:49:15;;;;;;;0.77;0.30;;;19.10;77.90;;;;;;5098429;28;20046;-77
2021/07/04 00:51:41;;;;;;;0.68;0.30;;;19.10;77.90;;;;;;5082799;28;20020;-77
2021/07/04 00:54:06;;;;;;;0.70;0.30;;;19.20;77.80;;;;;;5093746;28;20020;-77
2021/07/04 00:56:32;;;;;;;0.50;0.30;;;19.00;78.70;;;;;;5098143;28;20058;-77
2021/07/04 00:58:58;;;;;;;1.23;0.50;;;19.00;78.80;;;;;;5084479;28;20029;-77
2021/07/04 01:01:24;;;;;;;0.80;0.32;;;19.00;78.80;;;;;;5076477;28;20024;-77
2021/07/04 01:03:49;;;;;;;0.75;0.30;;;19.00;78.60;;;;;;5094795;28;20051;-77
2021/07/04 01:06:15;;;;;;;0.90;0.40;;;19.10;78.50;;;;;;5113754;28;20089;-77
2021/07/04 01:08:41;;;;;;;0.63;0.30;;;19.10;78.30;;;;;;5113861;28;20039;-77
2021/07/04 01:11:07;;;;;;;0.80;0.40;;;19.20;78.40;;;;;;5098015;28;20032;-77
2021/07/04 01:13:32;;;;;;;0.82;0.30;;;19.00;78.60;;;;;;5079437;28;20448;-77
2021/07/04 01:15:59;;;;;;;0.73;0.30;;;19.00;78.70;;;;;;5075958;28;20024;-76
2021/07/04 01:18:25;;;;;;;0.50;0.30;;;18.90;79.00;;;;;;5076241;28;20028;-77
2021/07/04 01:20:52;;;;;;;0.80;0.35;;;18.80;79.60;;;;;;5077531;28;20112;-77
2021/07/04 01:23:20;;;;;;;0.70;0.38;;;18.80;79.50;;;;;;5093595;28;20494;-76
2021/07/04 01:25:54;;;;;;;0.75;0.40;;;18.90;79.30;;;;;;5082438;28;20030;-77
2021/07/04 01:28:21;;;;;;;0.85;0.43;;;18.80;79.70;;;;;;5076728;28;20076;-77
2021/07/04 01:30:50;;;;;;;0.57;0.30;;;18.80;79.50;;;;;;5077193;28;20104;-77
2021/07/04 01:33:16;;;;;;;0.95;0.40;;;18.80;79.30;;;;;;5094785;28;20081;-76
2021/07/04 01:35:41;;;;;;;1.10;0.40;;;18.80;79.40;;;;;;5097353;28;20016;-77
2021/07/04 01:38:07;;;;;;;0.88;0.45;;;18.90;79.20;;;;;;5097498;28;20032;-77
2021/07/04 01:40:35;;;;;;;0.57;0.40;;;18.90;79.20;;;;;;5086060;28;20091;-77
2021/07/04 01:43:01;;;;;;;1.13;0.38;;;18.80;79.70;;;;;;5077027;28;20033;-76
2021/07/04 01:45:27;;;;;;;0.95;0.40;;;18.80;79.80;;;;;;5076678;28;20562;-76
2021/07/04 01:47:56;;;;;;;1.42;0.40;;;18.80;79.80;;;;;;5097087;28;20059;-77
2021/07/04 01:50:44;;;;;;;0.75;0.40;;;18.80;79.50;;;;;;5092250;28;20498;-77
2021/07/04 01:53:10;;;;;;;1.33;0.40;;;18.80;79.20;;;;;;5100298;28;20030;-77
2021/07/04 01:55:36;;;;;;;0.82;0.30;;;18.80;79.30;;;;;;5097105;28;20024;-77
2021/07/04 01:58:01;;;;;;;0.40;0.22;;;18.70;79.80;;;;;;5081226;28;20086;-77
2021/07/04 02:00:29;;;;;;;0.93;0.40;;;18.80;79.60;;;;;;5076665;28;20467;-77
2021/07/04 02:03:08;;;;;;;0.73;0.40;;;18.80;79.60;;;;;;5076543;28;20029;-77
2021/07/04 02:05:35;;;;;;;0.80;0.35;;;18.80;79.40;;;;;;5076508;28;20051;-77
2021/07/04 02:08:01;;;;;;;1.40;0.32;;;18.80;79.70;;;;;;5076646;28;20036;-76
2021/07/04 02:10:29;;;;;;;1.02;0.50;;;18.80;79.70;;;;;;5076005;28;20474;-77
2021/07/04 02:12:55;;;;;;;0.65;0.40;;;18.80;80.00;;;;;;5076013;28;20051;-77
2021/07/04 02:15:23;;;;;;;0.60;0.30;;;18.60;80.60;;;;;;5076196;28;20028;-77
2021/07/04 02:17:50;;;;;;;0.90;0.40;;;18.50;80.60;;;;;;5076377;28;20583;-76
2021/07/04 02:20:33;;;;;;;0.93;0.50;;;18.70;80.40;;;;;;5076219;28;20090;-76
2021/07/04 02:23:10;;;;;;;0.82;0.38;;;18.60;80.70;;;;;;5075126;28;20025;-77
2021/07/04 02:25:55;;;;;;;0.95;0.40;;;18.60;80.30;;;;;;5076066;28;20107;-77
2021/07/04 02:28:23;;;;;;;1.15;0.40;;;18.70;80.10;;;;;;5076068;28;20048;-77
2021/07/04 02:30:51;;;;;;;0.50;0.35;;;18.60;80.40;;;;;;5075845;28;20051;-76
2021/07/04 02:33:18;;;;;;;0.75;0.35;;;18.60;80.10;;;;;;5076002;28;20052;-77
2021/07/04 02:35:46;;;;;;;0.75;0.35;;;18.70;79.70;;;;;;5075938;28;20036;-77
2021/07/04 02:38:12;;;;;;;0.40;0.30;;;18.70;80.30;;;;;;5074685;28;20025;-77
2021/07/04 02:40:40;;;;;;;0.50;0.30;;;18.60;80.50;;;;;;5075884;28;20025;-77
2021/07/04 02:43:07;;;;;;;0.90;0.40;;;18.60;80.00;;;;;;5083333;28;20076;-76
2021/07/04 02:45:33;;;;;;;0.40;0.28;;;18.70;79.90;;;;;;5095936;28;20496;-76
2021/07/04 02:47:59;;;;;;;0.95;0.40;;;18.70;80.00;;;;;;5095505;28;20035;-77
2021/07/04 02:50:24;;;;;;;1.20;0.43;;;18.70;79.90;;;;;;5094664;28;20028;-77
2021/07/04 02:52:52;;;;;;;0.43;0.30;;;18.80;79.50;;;;;;5095863;28;20069;-77
2021/07/04 02:55:19;;;;;;;0.30;0.30;;;18.80;79.80;;;;;;5077630;28;20024;-77
2021/07/04 02:57:46;;;;;;;0.68;0.30;;;18.70;79.90;;;;;;5075831;28;20035;-77
2021/07/04 03:00:16;;;;;;;0.60;0.40;;;18.70;79.90;;;;;;5075503;28;20016;-77
2021/07/04 03:02:43;;;;;;;0.75;0.40;;;18.70;79.70;;;;;;5081415;28;20144;-76
2021/07/04 03:05:10;;;;;;;0.70;0.30;;;18.70;79.80;;;;;;5095835;28;20482;-77
2021/07/04 03:07:36;;;;;;;0.47;0.30;;;18.70;79.90;;;;;;5111366;28;20032;-77
2021/07/04 03:10:07;;;;;;;0.52;0.30;;;18.70;79.90;;;;;;5088967;28;20371;-76
2021/07/04 03:12:33;;;;;;;1.40;0.35;;;18.80;79.50;;;;;;5075350;28;20483;-77
2021/07/04 03:14:59;;;;;;;0.60;0.30;;;18.70;79.70;;;;;;5075432;28;20112;-77
2021/07/04 03:17:27;;;;;;;0.85;0.50;;;18.80;79.80;;;;;;5075411;28;20039;-76
2021/07/04 03:19:54;;;;;;;0.50;0.30;;;18.70;79.90;;;;;;5092028;28;20028;-77
2021/07/04 03:22:19;;;;;;;0.60;0.30;;;18.70;80.10;;;;;;5091071;28;20032;-77
2021/07/04 03:24:45;;;;;;;0.73;0.50;;;18.80;79.80;;;;;;5075261;28;20025;-77
2021/07/04 03:27:11;;;;;;;0.70;0.30;;;18.80;79.70;;;;;;5073787;28;20059;-76
2021/07/04 03:29:37;;;;;;;0.77;0.40;;;18.70;80.00;;;;;;5075369;28;20474;-77
2021/07/04 03:32:04;;;;;;;0.63;0.40;;;18.70;80.40;;;;;;5075075;28;20505;-77
2021/07/04 03:34:33;;;;;;;0.57;0.30;;;18.70;80.80;;;;;;5075370;28;20111;-77
2021/07/04 03:36:59;;;;;;;0.90;0.43;;;18.50;81.30;;;;;;5083571;28;20126;-77
2021/07/04 03:39:24;;;;;;;0.57;0.30;;;18.40;81.50;;;;;;5083964;28;20109;-76
2021/07/04 03:41:50;;;;;;;0.70;0.40;;;18.40;81.60;;;;;;5094490;28;20308;-76
2021/07/04 03:44:16;;;;;;;0.60;0.40;;;18.30;81.70;;;;;;5093202;28;20028;-77
2021/07/04 03:46:41;;;;;;;0.50;0.38;;;18.30;81.90;;;;;;5075018;28;20025;-77
2021/07/04 03:49:07;;;;;;;0.65;0.40;;;18.40;81.80;;;;;;5075122;28;20025;-77
2021/07/04 03:51:33;;;;;;;0.52;0.30;;;18.50;81.70;;;;;;5074780;28;20025;-77
2021/07/04 03:53:58;;;;;;;0.80;0.43;;;18.50;81.40;;;;;;5094841;28;20504;-76
2021/07/04 03:56:24;;;;;;;0.70;0.40;;;18.50;81.40;;;;;;5095196;28;20035;-77
2021/07/04 03:58:50;;;;;;;0.75;0.40;;;18.30;82.10;;;;;;5095487;28;20016;-77
2021/07/04 04:01:20;;;;;;;1.05;0.40;;;18.30;82.00;;;;;;5093852;28;20030;-77
2021/07/04 04:03:50;;;;;;;0.40;0.30;;;18.30;82.30;;;;;;5090610;28;20012;-77
2021/07/04 04:06:18;;;;;;;0.43;0.30;;;18.30;82.30;;;;;;5074953;28;20036;-77
2021/07/04 04:08:45;;;;;;;0.57;0.32;;;18.20;82.80;;;;;;5074756;28;20024;-76
2021/07/04 04:11:12;;;;;;;0.43;0.30;;;18.20;82.80;;;;;;5073550;28;20114;-77
2021/07/04 04:13:39;;;;;;;0.35;0.25;;;18.20;82.90;;;;;;5074971;28;20506;-76
2021/07/04 04:16:05;;;;;;;0.30;0.25;;;18.20;83.30;;;;;;5074822;28;20033;-77
2021/07/04 04:18:35;;;;;;;0.60;0.32;;;18.10;83.20;;;;;;5074754;28;20033;-77
2021/07/04 04:21:01;;;;;;;;;;;18.10;83.50;;;;;;5075264;28;20032;-77
2021/07/04 04:23:27;;;;;;;0.40;0.30;;;18.20;83.40;;;;;;5073500;28;19952;-77
2021/07/04 04:25:52;;;;;;;0.63;0.30;;;18.30;83.00;;;;;;5074738;28;20107;-77
2021/07/04 04:28:18;;;;;;;0.35;0.28;;;18.30;82.60;;;;;;5074609;28;20052;-77
2021/07/04 04:30:44;;;;;;;1.20;0.40;;;18.20;83.00;;;;;;5074755;28;20025;-77
2021/07/04 04:33:09;;;;;;;1.45;0.40;;;18.30;83.00;;;;;;5074521;28;20047;-77
2021/07/04 04:35:35;;;;;;;0.73;0.40;;;18.30;82.90;;;;;;5077238;28;20024;-77
2021/07/04 04:38:00;;;;;;;0.60;0.38;;;18.20;83.10;;;;;;5078143;28;20040;-77
2021/07/04 04:40:27;;;;;;;0.60;0.30;;;18.20;83.20;;;;;;5078024;28;20056;-77
2021/07/04 04:42:54;;;;;;;0.57;0.38;;;18.20;83.50;;;;;;5096855;28;20032;-77
2021/07/04 04:45:20;;;;;;;0.73;0.30;;;18.30;83.00;;;;;;5098518;28;20027;-77
2021/07/04 04:48:03;;;;;;;0.35;0.30;;;18.30;83.40;;;;;;5098357;28;20024;-77
2021/07/04 04:50:29;;;;;;;0.68;0.30;;;18.30;83.30;;;;;;5097196;28;20031;-77
2021/07/04 04:52:54;;;;;;;0.65;0.35;;;18.30;83.50;;;;;;5098322;28;20072;-77
2021/07/04 04:55:20;;;;;;;0.68;0.40;;;18.30;83.50;;;;;;5098246;28;20024;-77
2021/07/04 04:57:46;;;;;;;0.55;0.32;;;18.20;83.80;;;;;;5098259;28;20370;-77
2021/07/04 05:00:13;;;;;;;0.50;0.40;;;18.30;84.00;;;;;;5082760;28;20442;-77
2021/07/04 05:02:39;;;;;;;0.60;0.50;;;18.30;83.40;;;;;;5077800;28;20599;-77
2021/07/04 05:05:06;;;;;;;0.40;0.22;;;18.50;83.20;;;;;;5077712;28;20036;-77
2021/07/04 05:07:32;;;;;;;0.50;0.35;;;18.40;83.40;;;;;;5077662;28;20058;-77
2021/07/04 05:09:58;;;;;;;0.52;0.30;;;18.40;83.50;;;;;;5077831;28;20021;-77
2021/07/04 05:12:23;;;;;;;0.70;0.50;;;18.40;83.30;;;;;;5076411;28;20029;-77
2021/07/04 05:14:49;;;;;;;0.80;0.40;;;18.50;83.30;;;;;;5077468;28;20517;-77
2021/07/04 05:17:16;;;;;;;1.17;0.40;;;18.30;83.70;;;;;;5077637;28;20495;-77
2021/07/04 05:19:42;;;;;;;0.50;0.30;;;18.20;84.40;;;;;;5077549;28;20028;-77
2021/07/04 05:22:08;;;;;;;0.88;0.50;;;18.10;84.70;;;;;;5095630;28;20028;-76
2021/07/04 05:24:34;;;;;;;0.60;0.30;;;18.20;84.70;;;;;;5092141;28;20028;-77
2021/07/04 05:27:00;;;;;;;0.52;0.32;;;18.00;85.10;;;;;;5077225;28;20037;-77
2021/07/04 05:29:25;;;;;;;0.50;0.30;;;18.00;85.50;;;;;;5077391;28;20555;-77
2021/07/04 05:31:51;;;;;;;0.47;0.32;;;18.00;85.40;;;;;;5085052;28;20028;-77
2021/07/04 05:34:17;;;;;;;0.65;0.40;;;18.00;85.70;;;;;;5097601;28;20031;-77
2021/07/04 05:36:46;;;;;;;0.50;0.30;;;18.00;85.80;;;;;;5097558;28;20012;-77
2021/07/04 05:39:12;;;;;;;0.52;0.30;;;18.00;85.50;;;;;;5091626;28;20024;-77
2021/07/04 05:41:37;;;;;;;0.90;0.40;;;18.00;85.20;;;;;;5076743;28;20127;-76
2021/07/04 05:44:04;;;;;;;0.90;0.40;;;18.10;85.30;;;;;;5077051;28;20025;-77
2021/07/04 05:46:32;;;;;;;0.47;0.38;;;18.20;85.20;;;;;;5084981;28;20108;-77
2021/07/04 05:48:58;;;;;;;0.70;0.50;;;18.10;85.50;;;;;;5085803;28;20052;-77
2021/07/04 05:51:24;;;;;;;0.90;0.40;;;18.30;85.20;;;;;;5085587;28;20031;-82
2021/07/04 05:53:50;;;;;;;0.45;0.30;;;18.30;84.60;;;;;;5087133;28;20452;-80
2021/07/04 05:56:16;;;;;;;0.50;0.30;;;18.40;84.40;;;;;;5101509;28;20107;-81
2021/07/04 05:58:42;;;;;;;0.50;0.30;;;18.50;83.90;;;;;;5082036;28;20024;-82
2021/07/04 06:01:07;;;;;;;0.40;0.30;;;18.50;84.10;;;;;;5085656;28;20103;-81
2021/07/04 06:03:33;;;;;;;0.40;0.30;;;18.50;84.50;;;;;;5079066;28;20032;-78
2021/07/04 06:05:59;;;;;;;0.52;0.30;;;18.60;84.10;;;;;;5076447;28;20032;-81
2021/07/04 06:08:25;;;;;;;0.43;0.30;;;18.70;83.70;;;;;;5082972;28;20051;-81
2021/07/04 06:10:51;;;;;;;0.40;0.30;;;18.50;83.80;;;;;;5084088;28;20020;-80
2021/07/04 06:13:18;;;;;;;0.43;0.30;;;18.60;84.00;;;;;;5084385;28;20032;-80
2021/07/04 06:15:44;;;;;;;0.40;0.30;;;18.70;83.20;;;;;;5086888;28;20016;-80
2021/07/04 06:18:17;;;;;;;0.20;0.20;;;18.60;83.50;;;;;;5089768;28;20107;-83
2021/07/04 06:20:43;;;;;;;0.22;0.20;;;18.70;83.00;;;;;;5076580;28;20025;-80
2021/07/04 06:23:11;;;;;;;0.40;0.20;;;18.80;82.70;;;;;;5093302;28;20497;-82
2021/07/04 06:25:37;;;;;;;0.47;0.28;;;18.80;82.80;;;;;;5085405;28;20032;-83
2021/07/04 06:28:03;;;;;;;0.60;0.30;;;18.70;83.20;;;;;;5076148;28;20468;-83
2021/07/04 06:30:29;;;;;;;0.52;0.30;;;18.90;83.00;;;;;;5076364;28;20027;-82
2021/07/04 06:32:54;;;;;;;0.50;0.30;;;18.90;82.60;;;;;;5075071;28;20053;-86
2021/07/04 06:35:20;;;;;;;0.57;0.30;;;18.90;82.40;;;;;;5087799;28;20089;-86
2021/07/04 06:37:46;;;;;;;0.40;0.30;;;19.10;82.20;;;;;;5092327;28;20493;-83
2021/07/04 06:40:13;;;;;;;0.43;0.22;;;19.20;82.00;;;;;;5091608;28;20030;-86
2021/07/04 06:42:39;;;;;;;0.38;0.30;;;19.20;81.70;;;;;;5092373;28;20031;-89
2021/07/04 06:45:10;;;;;;;0.70;0.30;;;19.30;81.70;;;;;;5083734;28;20474;-85
2021/07/04 06:49:01;;;;;;;0.30;0.20;;;19.60;81.00;;;;;;5090285;28;20081;-89
2021/07/04 06:50:55;;;;;;;0.40;0.20;;;19.90;80.50;;;;;;5069495;28;20017;-85
2021/07/04 06:53:21;;;;;;;0.50;0.20;;;20.30;79.30;;;;;;5087885;28;20024;-82
2021/07/04 06:55:46;;;;;;;0.57;0.30;;;20.20;79.10;;;;;;5096035;28;20062;-82
2021/07/04 06:58:12;;;;;;;0.47;0.20;;;20.10;79.60;;;;;;5093672;28;20032;-81
2021/07/04 07:00:38;;;;;;;0.40;0.30;;;20.00;79.70;;;;;;5092818;28;20027;-85
2021/07/04 07:03:04;;;;;;;0.50;0.20;;;19.90;79.90;;;;;;5086537;28;20028;-78
2021/07/04 07:05:29;;;;;;;0.28;0.17;;;20.20;79.90;;;;;;5077968;28;20119;-84
2021/07/04 07:07:58;;;;;;;0.60;0.30;;;20.20;79.10;;;;;;5095330;28;20035;-88
2021/07/04 07:10:24;;;;;;;0.40;0.20;;;20.20;78.40;;;;;;5093061;28;20038;-80
2021/07/04 07:12:49;;;;;;;0.50;0.30;;;20.20;78.40;;;;;;5081731;28;20075;-82
2021/07/04 07:15:15;;;;;;;0.25;0.17;;;20.20;78.40;;;;;;5077907;28;20036;-80
2021/07/04 07:17:41;;;;;;;0.57;0.20;;;20.20;78.30;;;;;;5080338;28;20036;-79
2021/07/04 07:20:08;;;;;;;0.35;0.20;;;19.90;78.70;;;;;;5093815;28;20028;-80
2021/07/04 07:22:34;;;;;;;1.25;0.40;;;19.90;79.90;;;;;;5087206;28;20017;-80
2021/07/04 07:25:00;;;;;;;0.45;0.20;;;19.90;80.00;;;;;;5102313;28;20028;-79
2021/07/04 07:27:26;;;;;;;0.88;0.30;;;20.10;79.20;;;;;;5085344;28;20044;-79
2021/07/04 07:29:54;;;;;;;0.50;0.30;;;20.50;79.00;;;;;;5083965;28;20039;-82
2021/07/04 07:32:20;;;;;;;0.60;0.20;;;21.00;77.30;;;;;;5082482;28;20035;-70
2021/07/04 07:34:46;;;;;;;1.15;0.40;;;21.30;75.20;;;;;;5079872;28;20025;-71
2021/07/04 07:37:14;;;;;;;0.70;0.38;;;21.50;74.30;;;;;;5081993;28;20070;-78
2021/07/04 07:39:40;;;;;;;0.28;0.15;;;21.80;74.20;;;;;;5074950;28;20169;-77
2021/07/04 07:42:06;;;;;;;0.35;0.17;;;23.70;68.50;;;;;;5099088;28;20048;-76
2021/07/04 07:44:32;;;;;;;0.50;0.10;;;23.30;67.30;;;;;;5081037;28;20498;-76
2021/07/04 07:46:57;;;;;;;0.40;0.17;;;22.40;70.20;;;;;;5081951;28;20107;-76
2021/07/04 07:49:23;;;;;;;0.47;0.20;;;21.70;72.90;;;;;;5082911;28;20478;-76
2021/07/04 07:51:49;;;;;;;0.10;0.10;;;21.30;74.10;;;;;;5079298;28;20028;-76
2021/07/04 07:54:16;;;;;;;1.17;0.30;;;21.20;75.20;;;;;;5084746;28;20028;-77
2021/07/04 07:56:42;;;;;;;0.50;0.20;;;21.20;75.80;;;;;;5086727;28;20071;-77
2021/07/04 07:59:08;;;;;;;0.68;0.35;;;21.40;74.40;;;;;;5081612;28;20410;-76
2021/07/04 08:01:34;;;;;;;0.40;0.20;;;21.70;74.00;;;;;;5074812;28;20031;-81
2021/07/04 08:03:59;;;;;;;0.43;0.20;;;21.60;72.90;;;;;;5087848;28;20103;-79
2021/07/04 08:06:25;;;;;;;0.25;0.17;;;21.30;74.70;;;;;;5093831;28;20021;-75
2021/07/04 08:08:51;;;;;;;0.28;0.20;;;21.10;75.60;;;;;;5091985;28;20035;-77
2021/07/04 08:11:17;;;;;;;0.60;0.30;;;20.90;76.00;;;;;;5098916;28;20048;-80
2021/07/04 08:13:42;;;;;;;0.50;0.20;;;20.90;75.90;;;;;;5096335;28;20029;-81
2021/07/04 08:16:08;;;;;;;0.65;0.30;;;20.60;76.30;;;;;;5088438;28;20547;-78
2021/07/04 08:18:34;;;;;;;1.00;0.40;;;20.60;77.00;;;;;;5097351;28;20501;-78
2021/07/04 08:21:00;;;;;;;0.43;0.30;;;20.30;78.00;;;;;;5082092;28;20501;-77
2021/07/04 08:23:25;;;;;;;0.65;0.30;;;20.40;77.60;;;;;;5084409;28;20032;-79
2021/07/04 08:25:51;;;;;;;1.05;0.35;;;20.50;78.40;;;;;;5087350;28;20048;-76
2021/07/04 08:28:17;;;;;;;0.90;0.30;;;20.70;77.20;;;;;;5079809;28;20055;-76
2021/07/04 08:30:44;;;;;;;0.52;0.28;;;20.80;77.70;;;;;;5088524;28;20023;-76
2021/07/04 08:33:10;;;;;;;0.50;0.20;;;20.60;77.10;;;;;;5089921;28;20065;-76
2021/07/04 08:35:37;;;;;;;0.57;0.20;;;20.30;78.00;;;;;;5086859;28;20099;-76
2021/07/04 08:38:03;;;;;;;0.50;0.30;;;20.40;77.80;;;;;;5088475;28;20028;-76
2021/07/04 08:40:29;;;;;;;0.40;0.15;;;20.70;77.00;;;;;;5086282;28;20095;-76
2021/07/04 08:42:55;;;;;;;0.50;0.20;;;20.80;76.40;;;;;;5088896;28;20104;-76
2021/07/04 08:45:20;;;;;;;0.63;0.30;;;20.80;77.20;;;;;;5086986;28;20012;-77
2021/07/04 08:47:46;;;;;;;0.77;0.30;;;20.80;76.80;;;;;;5087789;28;20034;-76
2021/07/04 08:50:13;;;;;;;0.82;0.22;;;20.80;77.70;;;;;;5086183;28;20037;-77
2021/07/04 08:52:39;;;;;;;0.57;0.30;;;21.00;76.50;;;;;;5089167;28;20044;-76
2021/07/04 08:55:06;;;;;;;0.60;0.30;;;21.10;76.00;;;;;;5092472;28;20066;-76
2021/07/04 08:57:32;;;;;;;0.52;0.30;;;21.70;73.80;;;;;;5087094;28;20026;-76
2021/07/04 08:59:57;;;;;;;0.50;0.30;;;22.80;71.50;;;;;;5081817;28;20020;-78
2021/07/04 09:02:37;;;;;;;0.70;0.22;;;24.40;66.70;;;;;;5085830;28;20029;-80
2021/07/04 09:05:04;;;;;;;;;;;24.40;63.90;;;;;;5082217;28;20059;-76
2021/07/04 09:07:31;;;;;;;0.30;0.10;;;23.90;64.60;;;;;;5077452;28;19912;-78
2021/07/04 09:10:08;;;;;;;0.65;0.20;;;23.80;64.60;;;;;;5096793;28;20526;-76
2021/07/04 09:12:41;;;;;;;0.30;0.17;;;23.70;65.90;;;;;;5097704;28;20035;-81
2021/07/04 09:15:11;;;;;;;0.47;0.20;;;23.40;66.10;;;;;;5086737;28;20199;-78
2021/07/04 09:17:39;;;;;;;0.30;0.20;;;23.00;67.10;;;;;;5096327;28;20024;-79
2021/07/04 09:20:13;;;;;;;0.47;0.10;;;22.80;67.20;;;;;;5096389;28;20039;-83
2021/07/04 09:22:41;;;;;;;0.82;0.20;;;22.80;66.60;;;;;;5097673;28;20028;-80
2021/07/04 09:25:07;;;;;;;0.73;0.30;;;22.70;67.00;;;;;;5080507;28;20086;-81
2021/07/04 09:27:33;;;;;;;0.20;0.10;;;22.60;68.10;;;;;;5078666;28;20078;-80
2021/07/04 09:29:59;;;;;;;0.40;0.20;;;22.40;68.50;;;;;;5089355;28;20020;-81
2021/07/04 09:32:29;;;;;;;0.63;0.20;;;22.20;68.60;;;;;;5086016;28;20628;-81
2021/07/04 09:35:05;;;;;;;0.90;0.30;;;22.00;71.70;;;;;;5088194;28;20016;-82
2021/07/04 09:37:46;;;;;;;0.52;0.20;;;21.60;72.60;;;;;;5085475;28;20040;-85
2021/07/04 09:40:22;;;;;;;0.80;0.30;;;21.30;73.70;;;;;;5096149;28;20028;-76
2021/07/04 09:42:55;;;;;;;0.30;0.20;;;20.80;76.20;;;;;;5088746;28;20923;-75
2021/07/04 09:45:22;;;;;;;0.85;0.20;;;20.50;77.20;;;;;;5084406;28;20028;-75
2021/07/04 09:47:53;;;;;;;0.20;0.20;;;20.40;77.60;;;;;;5096281;28;20024;-76
2021/07/04 09:50:19;;;;;;;0.30;0.20;;;20.20;76.70;;;;;;5109428;28;20016;-77
2021/07/04 09:53:00;;;;;;;0.15;0.10;;;20.50;76.90;;;;;;5086629;28;20016;-76
2021/07/04 09:55:27;;;;;;;0.57;0.30;;;21.00;76.20;;;;;;5096783;28;20012;-76
2021/07/04 09:58:04;;;;;;;0.70;0.17;;;21.70;74.80;;;;;;5085405;28;20039;-77
2021/07/04 10:00:35;;;;;;;1.15;0.35;;;22.00;71.80;;;;;;5076749;28;20643;-77
2021/07/04 10:03:17;;;;;;;0.28;0.10;;;22.70;71.90;;;;;;5087132;28;20028;-77
2021/07/04 10:05:55;;;;;;;0.10;0.10;;;23.20;69.50;;;;;;5112909;28;20028;-77
2021/07/04 10:08:24;;;;;;;0.40;0.20;;;23.30;66.50;;;;;;5096954;28;20032;-77
2021/07/04 10:10:51;;;;;;;0.47;0.10;;;24.20;64.50;;;;;;5112454;28;20397;-77
2021/07/04 10:13:17;;;;;;;0.68;0.20;;;24.20;63.90;;;;;;5095393;28;20077;-77
2021/07/04 10:15:43;;;;;;;0.68;0.20;;;24.20;64.90;;;;;;5096777;28;20024;-76
2021/07/04 10:18:10;;;;;;;0.40;0.20;;;23.90;63.20;;;;;;5083129;28;20040;-77
2021/07/04 10:20:41;;;;;;;0.10;0.10;;;24.30;61.90;;;;;;5076275;28;20021;-77
2021/07/04 10:23:08;;;;;;;0.10;0.10;;;24.60;61.30;;;;;;5076367;28;20058;-77
2021/07/04 10:25:34;;;;;;;0.22;0.10;;;24.70;59.50;;;;;;5076147;28;20111;-77
2021/07/04 10:28:02;;;;;;;0.10;0.10;;;24.50;60.40;;;;;;5076267;28;20052;-77
2021/07/04 10:30:28;;;;;;;0.30;0.10;;;24.90;59.90;;;;;;5079813;28;20107;-77
2021/07/04 10:33:19;;;;;;;0.20;0.10;;;25.10;61.10;;;;;;5095659;28;20028;-77
2021/07/04 10:36:09;;;;;;;0.22;0.20;;;24.60;59.30;;;;;;5096340;28;20016;-77
2021/07/04 10:38:43;;;;;;;0.20;0.10;;;25.30;57.60;;;;;;5096270;28;20028;-77
2021/07/04 10:41:17;;;;;;;0.60;0.10;;;25.80;54.40;;;;;;5074655;28;20029;-77
2021/07/04 10:44:05;;;;;;;0.17;0.08;;;25.90;58.80;;;;;;5076079;28;20025;-77
2021/07/04 10:46:57;;;;;;;0.10;0.00;;;25.60;56.30;;;;;;5075992;28;20025;-77
2021/07/04 10:49:30;;;;;;;0.40;0.13;;;25.10;55.80;;;;;;5075371;28;20044;-77
2021/07/04 10:51:57;;;;;;;0.47;0.10;;;24.80;54.20;;;;;;5075867;28;20024;-77
2021/07/04 10:54:43;;;;;;;0.15;0.10;;;24.60;56.80;;;;;;5088217;28;20055;-77
2021/07/04 10:57:34;;;;;;;0.40;0.10;;;24.40;54.70;;;;;;5075612;28;20031;-77
2021/07/04 11:00:08;;;;;;;0.20;0.17;;;24.20;58.00;;;;;;5074852;28;20021;-77
2021/07/04 11:02:37;;;;;;;0.10;0.10;;;24.20;56.00;;;;;;5075679;28;20044;-77
2021/07/04 11:05:09;;;;;;;0.30;0.10;;;24.00;56.30;;;;;;5075417;28;20032;-76
2021/07/04 11:07:53;;;;;;;0.30;0.10;;;24.10;55.50;;;;;;5075577;28;20082;-77
2021/07/04 11:10:23;;;;;;;0.20;0.10;;;23.80;54.70;;;;;;5074207;28;20107;-76
2021/07/04 11:12:51;;;;;;;0.88;0.22;;;23.60;55.60;;;;;;5079612;28;20016;-77
2021/07/04 11:15:19;;;;;;;0.13;0.10;;;23.60;56.80;;;;;;5077627;28;20845;-77
2021/07/04 11:17:57;;;;;;;0.30;0.10;;;23.80;58.10;;;;;;5075696;28;20031;-76
2021/07/04 11:20:46;;;;;;;0.03;0.03;;;23.90;60.70;;;;;;5075580;28;20077;-77
2021/07/04 11:23:25;;;;;;;0.22;0.10;;;23.80;57.80;;;;;;5075255;28;20063;-77
2021/07/04 11:25:57;;;;;;;0.10;0.10;;;23.80;58.00;;;;;;5075375;28;20024;-77
2021/07/04 11:28:37;;;;;;;0.10;0.00;;;23.90;58.50;;;;;;5075695;28;20060;-77
2021/07/04 11:31:04;;;;;;;0.20;0.10;;;24.20;59.10;;;;;;5074484;28;20020;-76
2021/07/04 11:33:37;;;;;;;0.40;0.13;;;24.40;56.50;;;;;;5075444;28;20382;-77
2021/07/04 11:36:15;;;;;;;1.15;0.70;;;24.80;56.10;;;;;;5075374;28;20048;-77
2021/07/04 11:38:48;;;;;;;0.82;0.50;;;24.60;54.20;;;;;;5075430;28;20029;-77
2021/07/04 11:41:17;;;;;;;0.60;0.30;;;24.40;55.90;;;;;;5075268;28;20064;-76
2021/07/04 11:43:44;;;;;;;0.47;0.15;;;24.30;54.80;;;;;;5076714;28;20059;-77
2021/07/04 11:46:18;;;;;;;0.40;0.10;;;24.10;55.40;;;;;;5079226;28;20059;-77
2021/07/04 11:48:45;;;;;;;0.10;0.10;;;24.10;54.90;;;;;;5095027;28;20028;-77
2021/07/04 11:51:35;;;;;;;0.47;0.10;;;24.50;55.20;;;;;;5079369;28;20055;-77
2021/07/04 11:54:22;;;;;;;0.43;0.10;;;24.70;55.00;;;;;;5094263;28;20020;-77
2021/07/04 11:56:54;;;;;;;0.10;0.10;;;24.80;54.40;;;;;;5067486;28;20123;-76
2021/07/04 11:59:21;;;;;;;0.60;0.20;;;24.70;52.30;;;;;;5078009;28;20039;-77
2021/07/04 12:01:55;;;;;;;0.10;0.10;;;24.50;51.70;;;;;;5078910;28;20437;-77
2021/07/04 12:04:33;;;;;;;0.20;0.10;;;24.60;53.10;;;;;;5077762;28;20495;-77
2021/07/04 12:07:03;;;;;;;0.52;0.10;;;24.60;51.30;;;;;;5078966;28;20035;-77
2021/07/04 12:09:49;;;;;;;0.20;0.10;;;24.50;51.60;;;;;;5079233;28;20065;-77
2021/07/04 12:12:33;;;;;;;0.30;0.20;;;24.50;53.10;;;;;;5099136;28;20028;-76
2021/07/04 12:15:07;;;;;;;0.20;0.10;;;24.80;51.90;;;;;;5114661;28;20032;-77
2021/07/04 12:17:44;;;;;;;0.20;0.10;;;24.80;50.90;;;;;;5097720;28;20087;-77
2021/07/04 12:20:11;;;;;;;0.20;0.10;;;24.80;51.40;;;;;;5099392;28;20024;-76
2021/07/04 12:22:41;;;;;;;0.10;0.10;;;24.90;50.60;;;;;;5098979;28;20020;-77
2021/07/04 12:25:16;;;;;;;0.22;0.10;;;24.90;50.10;;;;;;5090691;28;20719;-75
2021/07/04 12:27:51;;;;;;;0.50;0.17;;;25.30;51.30;;;;;;5076994;28;20045;-77
2021/07/04 12:30:17;;;;;;;0.20;0.10;;;25.30;50.70;;;;;;5078060;28;20119;-77
2021/07/04 12:32:52;;;;;;;0.03;0.00;;;25.20;49.90;;;;;;5077329;28;20070;-77
2021/07/04 12:35:35;;;;;;;0.10;0.10;;;25.30;50.60;;;;;;5086667;28;20028;-76
2021/07/04 12:38:21;;;;;;;0.28;0.10;;;25.30;49.80;;;;;;5098683;28;20035;-77
2021/07/04 12:40:53;;;;;;;0.40;0.10;;;25.50;51.90;;;;;;5078667;28;20479;-77
2021/07/04 12:43:30;;;;;;;0.25;0.10;;;25.70;49.20;;;;;;5078201;28;20111;-77
2021/07/04 12:45:58;;;;;;;0.10;0.05;;;25.40;51.20;;;;;;5089601;28;20039;-77
2021/07/04 12:48:26;;;;;;;0.10;0.10;;;25.40;49.10;;;;;;5098503;28;20016;-76
2021/07/04 12:51:00;;;;;;;0.20;0.10;;;25.40;49.80;;;;;;5098411;28;20020;-77
2021/07/04 12:53:45;;;;;;;0.28;0.10;;;25.50;50.60;;;;;;5088652;28;20505;-77
2021/07/04 12:56:21;;;;;;;0.20;0.10;;;25.50;49.00;;;;;;5077418;28;20029;-77